Terminal Aerodrome Forecast
Issued by NWS

Home | Current Version | Previous Version | Text Only | Print | Product List | Glossary On
Versions: 1 2 3 4 5 6 7 8 9 10 11 12 13 14 15 16 17 18 19 20 21 22 23 24 25 26 27
000
FTAK31 PAFA 221132
TAFAOM
TAF
PAOM 221132Z 2212/2312 25015KT P6SM VCSH SCT006 BKN010 OVC015
     FM221500 28012KT 6SM -SHRA BR OVC015
     FM230600 31012KT 6SM BR VCSH BKN015 OVC025=

USA.gov is the U.S. government's official web portal to all federal, state and local government web resources and services.